sensor_id;sensor_type;location;lat;lon;timestamp;P1;durP1;ratioP1;P2;durP2;ratioP2
22007;SDS011;11168;56.976;24.168;2022-09-29T00:02:25;3.85;;;3.45;;
22007;SDS011;11168;56.976;24.168;2022-09-29T00:04:52;4.63;;;3.40;;
22007;SDS011;11168;56.976;24.168;2022-09-29T00:07:19;7.18;;;4.10;;
22007;SDS011;11168;56.976;24.168;2022-09-29T00:09:47;5.00;;;3.67;;
22007;SDS011;11168;56.976;24.168;2022-09-29T00:12:14;7.72;;;3.70;;
22007;SDS011;11168;56.976;24.168;2022-09-29T00:14:41;5.10;;;4.00;;
22007;SDS011;11168;56.976;24.168;2022-09-29T00:17:13;5.35;;;4.05;;
22007;SDS011;11168;56.976;24.168;2022-09-29T00:19:40;3.97;;;3.40;;
22007;SDS011;11168;56.976;24.168;2022-09-29T00:22:07;7.03;;;3.90;;
22007;SDS011;11168;56.976;24.168;2022-09-29T00:24:34;5.43;;;3.83;;
22007;SDS011;11168;56.976;24.168;2022-09-29T00:27:02;5.03;;;3.90;;
22007;SDS011;11168;56.976;24.168;2022-09-29T00:29:29;6.68;;;3.67;;
22007;SDS011;11168;56.976;24.168;2022-09-29T00:31:56;6.70;;;4.13;;
22007;SDS011;11168;56.976;24.168;2022-09-29T00:34:24;4.95;;;3.67;;
22007;SDS011;11168;56.976;24.168;2022-09-29T00:36:51;7.65;;;4.00;;
22007;SDS011;11168;56.976;24.168;2022-09-29T00:39:19;5.97;;;3.72;;
22007;SDS011;11168;56.976;24.168;2022-09-29T00:41:46;4.65;;;3.78;;
22007;SDS011;11168;56.976;24.168;2022-09-29T00:51:38;4.88;;;3.97;;
22007;SDS011;11168;56.976;24.168;2022-09-29T00:54:06;5.13;;;3.78;;
22007;SDS011;11168;56.976;24.168;2022-09-29T00:56:34;5.38;;;4.22;;
22007;SDS011;11168;56.976;24.168;2022-09-29T00:59:04;4.60;;;4.00;;
22007;SDS011;11168;56.976;24.168;2022-09-29T01:01:33;4.57;;;3.97;;
22007;SDS011;11168;56.976;24.168;2022-09-29T01:04:02;6.38;;;3.88;;
22007;SDS011;11168;56.976;24.168;2022-09-29T01:06:40;5.25;;;4.13;;
22007;SDS011;11168;56.976;24.168;2022-09-29T01:09:10;5.50;;;4.35;;
22007;SDS011;11168;56.976;24.168;2022-09-29T01:11:40;6.15;;;4.47;;
22007;SDS011;11168;56.976;24.168;2022-09-29T01:14:08;4.78;;;4.07;;
22007;SDS011;11168;56.976;24.168;2022-09-29T01:16:36;4.88;;;4.20;;
22007;SDS011;11168;56.976;24.168;2022-09-29T01:19:06;8.40;;;3.97;;
22007;SDS011;11168;56.976;24.168;2022-09-29T01:26:45;4.20;;;3.83;;
22007;SDS011;11168;56.976;24.168;2022-09-29T01:34:32;5.68;;;3.83;;
22007;SDS011;11168;56.976;24.168;2022-09-29T01:39:34;4.45;;;3.83;;
22007;SDS011;11168;56.976;24.168;2022-09-29T01:44:32;6.63;;;4.20;;
22007;SDS011;11168;56.976;24.168;2022-09-29T01:47:43;6.60;;;4.32;;
22007;SDS011;11168;56.976;24.168;2022-09-29T01:49:53;4.78;;;4.25;;
22007;SDS011;11168;56.976;24.168;2022-09-29T01:52:26;4.70;;;4.20;;
22007;SDS011;11168;56.976;24.168;2022-09-29T01:54:56;7.03;;;4.65;;
22007;SDS011;11168;56.976;24.168;2022-09-29T01:57:36;5.10;;;4.32;;
22007;SDS011;11168;56.976;24.168;2022-09-29T02:05:07;5.33;;;4.43;;
22007;SDS011;11168;56.976;24.168;2022-09-29T02:07:37;5.17;;;4.63;;
22007;SDS011;11168;56.976;24.168;2022-09-29T02:10:11;5.00;;;4.30;;
22007;SDS011;11168;56.976;24.168;2022-09-29T02:12:40;5.20;;;4.38;;
22007;SDS011;11168;56.976;24.168;2022-09-29T02:15:12;7.78;;;4.63;;
22007;SDS011;11168;56.976;24.168;2022-09-29T02:17:41;5.55;;;4.47;;
22007;SDS011;11168;56.976;24.168;2022-09-29T02:20:10;6.13;;;4.65;;
22007;SDS011;11168;56.976;24.168;2022-09-29T02:22:37;4.82;;;4.13;;
22007;SDS011;11168;56.976;24.168;2022-09-29T02:25:05;5.47;;;4.45;;
22007;SDS011;11168;56.976;24.168;2022-09-29T02:27:34;5.63;;;4.47;;
22007;SDS011;11168;56.976;24.168;2022-09-29T02:30:02;7.38;;;4.45;;
22007;SDS011;11168;56.976;24.168;2022-09-29T02:32:32;6.90;;;4.90;;
22007;SDS011;11168;56.976;24.168;2022-09-29T02:34:59;5.57;;;4.40;;
22007;SDS011;11168;56.976;24.168;2022-09-29T02:48:26;7.07;;;4.75;;
22007;SDS011;11168;56.976;24.168;2022-09-29T02:59:10;6.85;;;4.93;;
22007;SDS011;11168;56.976;24.168;2022-09-29T03:01:46;5.60;;;5.00;;
22007;SDS011;11168;56.976;24.168;2022-09-29T03:04:14;7.35;;;5.38;;
22007;SDS011;11168;56.976;24.168;2022-09-29T03:06:41;5.97;;;5.20;;
22007;SDS011;11168;56.976;24.168;2022-09-29T03:09:09;7.03;;;5.13;;
22007;SDS011;11168;56.976;24.168;2022-09-29T03:11:36;7.35;;;5.40;;
22007;SDS011;11168;56.976;24.168;2022-09-29T03:14:03;6.60;;;5.18;;
22007;SDS011;11168;56.976;24.168;2022-09-29T03:16:32;7.80;;;5.32;;
22007;SDS011;11168;56.976;24.168;2022-09-29T03:19:00;6.40;;;5.05;;
22007;SDS011;11168;56.976;24.168;2022-09-29T03:21:27;6.60;;;5.38;;
22007;SDS011;11168;56.976;24.168;2022-09-29T03:23:55;6.38;;;5.18;;
22007;SDS011;11168;56.976;24.168;2022-09-29T03:26:23;7.43;;;5.20;;
22007;SDS011;11168;56.976;24.168;2022-09-29T03:28:50;8.00;;;4.78;;
22007;SDS011;11168;56.976;24.168;2022-09-29T03:31:18;6.47;;;4.75;;
22007;SDS011;11168;56.976;24.168;2022-09-29T03:33:45;5.65;;;4.65;;
22007;SDS011;11168;56.976;24.168;2022-09-29T03:36:13;5.18;;;4.65;;
22007;SDS011;11168;56.976;24.168;2022-09-29T03:38:40;5.78;;;4.60;;
22007;SDS011;11168;56.976;24.168;2022-09-29T03:41:09;9.23;;;5.03;;
22007;SDS011;11168;56.976;24.168;2022-09-29T03:43:36;6.40;;;4.82;;
22007;SDS011;11168;56.976;24.168;2022-09-29T03:46:03;6.32;;;5.15;;
22007;SDS011;11168;56.976;24.168;2022-09-29T03:48:31;5.40;;;4.55;;
22007;SDS011;11168;56.976;24.168;2022-09-29T03:51:00;7.40;;;4.97;;
22007;SDS011;11168;56.976;24.168;2022-09-29T03:53:28;5.65;;;4.65;;
22007;SDS011;11168;56.976;24.168;2022-09-29T03:55:56;6.50;;;4.80;;
22007;SDS011;11168;56.976;24.168;2022-09-29T03:58:24;6.63;;;4.55;;
22007;SDS011;11168;56.976;24.168;2022-09-29T04:00:51;6.03;;;4.85;;
22007;SDS011;11168;56.976;24.168;2022-09-29T04:03:19;8.35;;;5.00;;
22007;SDS011;11168;56.976;24.168;2022-09-29T04:05:47;5.97;;;5.28;;
22007;SDS011;11168;56.976;24.168;2022-09-29T04:08:14;6.97;;;5.07;;
22007;SDS011;11168;56.976;24.168;2022-09-29T04:10:42;9.50;;;5.28;;
22007;SDS011;11168;56.976;24.168;2022-09-29T04:13:11;6.70;;;5.20;;
22007;SDS011;11168;56.976;24.168;2022-09-29T04:15:45;9.05;;;5.57;;
22007;SDS011;11168;56.976;24.168;2022-09-29T04:18:12;5.95;;;5.05;;
22007;SDS011;11168;56.976;24.168;2022-09-29T04:20:39;8.43;;;5.82;;
22007;SDS011;11168;56.976;24.168;2022-09-29T04:23:07;6.57;;;5.30;;
22007;SDS011;11168;56.976;24.168;2022-09-29T04:25:34;8.27;;;5.30;;
22007;SDS011;11168;56.976;24.168;2022-09-29T04:28:01;6.20;;;5.13;;
22007;SDS011;11168;56.976;24.168;2022-09-29T04:30:29;6.60;;;5.53;;
22007;SDS011;11168;56.976;24.168;2022-09-29T04:32:56;7.40;;;6.28;;
22007;SDS011;11168;56.976;24.168;2022-09-29T04:35:24;8.88;;;5.75;;
22007;SDS011;11168;56.976;24.168;2022-09-29T04:37:54;6.90;;;5.55;;
22007;SDS011;11168;56.976;24.168;2022-09-29T04:40:25;9.85;;;6.07;;
22007;SDS011;11168;56.976;24.168;2022-09-29T04:42:52;9.02;;;6.60;;
22007;SDS011;11168;56.976;24.168;2022-09-29T04:45:20;6.40;;;5.68;;
22007;SDS011;11168;56.976;24.168;2022-09-29T04:47:47;11.90;;;6.57;;
22007;SDS011;11168;56.976;24.168;2022-09-29T04:50:15;10.88;;;6.38;;
22007;SDS011;11168;56.976;24.168;2022-09-29T04:52:42;10.20;;;6.93;;
22007;SDS011;11168;56.976;24.168;2022-09-29T04:55:10;12.20;;;7.07;;
22007;SDS011;11168;56.976;24.168;2022-09-29T04:57:38;9.40;;;6.90;;
22007;SDS011;11168;56.976;24.168;2022-09-29T05:00:05;8.55;;;7.10;;
22007;SDS011;11168;56.976;24.168;2022-09-29T05:02:33;11.55;;;6.65;;
22007;SDS011;11168;56.976;24.168;2022-09-29T05:05:01;8.43;;;6.57;;
22007;SDS011;11168;56.976;24.168;2022-09-29T05:07:28;9.50;;;6.78;;
22007;SDS011;11168;56.976;24.168;2022-09-29T05:09:55;7.78;;;6.35;;
22007;SDS011;11168;56.976;24.168;2022-09-29T05:12:23;9.00;;;6.88;;
22007;SDS011;11168;56.976;24.168;2022-09-29T05:14:50;9.32;;;7.43;;
22007;SDS011;11168;56.976;24.168;2022-09-29T05:17:17;8.23;;;7.28;;
22007;SDS011;11168;56.976;24.168;2022-09-29T05:19:45;9.93;;;7.05;;
22007;SDS011;11168;56.976;24.168;2022-09-29T05:22:12;8.82;;;7.07;;
22007;SDS011;11168;56.976;24.168;2022-09-29T05:24:39;10.23;;;8.00;;
22007;SDS011;11168;56.976;24.168;2022-09-29T05:27:06;10.30;;;6.97;;
22007;SDS011;11168;56.976;24.168;2022-09-29T05:29:36;9.55;;;7.32;;
22007;SDS011;11168;56.976;24.168;2022-09-29T05:32:03;10.25;;;8.15;;
22007;SDS011;11168;56.976;24.168;2022-09-29T05:34:31;9.60;;;8.02;;
22007;SDS011;11168;56.976;24.168;2022-09-29T05:36:58;8.85;;;7.10;;
22007;SDS011;11168;56.976;24.168;2022-09-29T05:39:25;11.02;;;8.00;;
22007;SDS011;11168;56.976;24.168;2022-09-29T05:41:57;9.43;;;7.32;;
22007;SDS011;11168;56.976;24.168;2022-09-29T05:44:25;9.43;;;7.43;;
22007;SDS011;11168;56.976;24.168;2022-09-29T05:46:52;9.55;;;7.75;;
22007;SDS011;11168;56.976;24.168;2022-09-29T05:49:19;11.13;;;7.85;;
22007;SDS011;11168;56.976;24.168;2022-09-29T05:51:47;12.63;;;8.38;;
22007;SDS011;11168;56.976;24.168;2022-09-29T05:54:14;10.25;;;7.63;;
22007;SDS011;11168;56.976;24.168;2022-09-29T05:56:41;11.32;;;7.93;;
22007;SDS011;11168;56.976;24.168;2022-09-29T05:59:10;10.70;;;8.38;;
22007;SDS011;11168;56.976;24.168;2022-09-29T06:01:38;10.15;;;7.88;;
22007;SDS011;11168;56.976;24.168;2022-09-29T06:04:05;8.55;;;7.28;;
22007;SDS011;11168;56.976;24.168;2022-09-29T06:06:33;11.13;;;7.93;;
22007;SDS011;11168;56.976;24.168;2022-09-29T06:09:01;9.10;;;7.80;;
22007;SDS011;11168;56.976;24.168;2022-09-29T06:11:29;10.65;;;8.10;;
22007;SDS011;11168;56.976;24.168;2022-09-29T06:13:57;11.10;;;8.35;;
22007;SDS011;11168;56.976;24.168;2022-09-29T06:16:25;11.00;;;8.00;;
22007;SDS011;11168;56.976;24.168;2022-09-29T06:18:53;11.10;;;8.18;;
22007;SDS011;11168;56.976;24.168;2022-09-29T06:21:21;12.18;;;9.20;;
22007;SDS011;11168;56.976;24.168;2022-09-29T06:23:49;11.88;;;8.43;;
22007;SDS011;11168;56.976;24.168;2022-09-29T06:26:18;12.00;;;8.63;;
22007;SDS011;11168;56.976;24.168;2022-09-29T06:28:49;13.27;;;8.30;;
22007;SDS011;11168;56.976;24.168;2022-09-29T06:31:18;13.35;;;8.07;;
22007;SDS011;11168;56.976;24.168;2022-09-29T06:33:46;11.75;;;7.68;;
22007;SDS011;11168;56.976;24.168;2022-09-29T06:38:59;9.57;;;7.70;;
22007;SDS011;11168;56.976;24.168;2022-09-29T06:41:26;12.07;;;8.05;;
22007;SDS011;11168;56.976;24.168;2022-09-29T06:43:55;13.68;;;8.13;;
22007;SDS011;11168;56.976;24.168;2022-09-29T06:46:22;12.95;;;8.07;;
22007;SDS011;11168;56.976;24.168;2022-09-29T06:48:52;16.35;;;7.57;;
22007;SDS011;11168;56.976;24.168;2022-09-29T06:51:20;10.70;;;8.20;;
22007;SDS011;11168;56.976;24.168;2022-09-29T06:53:50;10.98;;;8.52;;
22007;SDS011;11168;56.976;24.168;2022-09-29T06:56:25;10.50;;;7.82;;
22007;SDS011;11168;56.976;24.168;2022-09-29T06:58:52;12.02;;;8.80;;
22007;SDS011;11168;56.976;24.168;2022-09-29T07:01:20;12.27;;;9.23;;
22007;SDS011;11168;56.976;24.168;2022-09-29T07:03:48;16.15;;;8.15;;
22007;SDS011;11168;56.976;24.168;2022-09-29T07:06:15;20.73;;;9.40;;
22007;SDS011;11168;56.976;24.168;2022-09-29T07:08:46;18.67;;;8.95;;
22007;SDS011;11168;56.976;24.168;2022-09-29T07:11:13;11.43;;;8.13;;
22007;SDS011;11168;56.976;24.168;2022-09-29T07:13:41;14.02;;;8.43;;
22007;SDS011;11168;56.976;24.168;2022-09-29T07:16:09;12.35;;;7.95;;
22007;SDS011;11168;56.976;24.168;2022-09-29T07:18:37;9.93;;;7.60;;
22007;SDS011;11168;56.976;24.168;2022-09-29T07:21:06;13.73;;;7.55;;
22007;SDS011;11168;56.976;24.168;2022-09-29T07:23:35;15.13;;;9.43;;
22007;SDS011;11168;56.976;24.168;2022-09-29T07:26:03;13.80;;;9.05;;
22007;SDS011;11168;56.976;24.168;2022-09-29T07:28:31;11.50;;;8.50;;
22007;SDS011;11168;56.976;24.168;2022-09-29T07:30:59;13.45;;;9.07;;
22007;SDS011;11168;56.976;24.168;2022-09-29T07:33:39;33.03;;;10.88;;
22007;SDS011;11168;56.976;24.168;2022-09-29T07:36:07;21.25;;;10.60;;
22007;SDS011;11168;56.976;24.168;2022-09-29T07:38:34;12.43;;;8.05;;
22007;SDS011;11168;56.976;24.168;2022-09-29T07:41:02;12.13;;;7.82;;
22007;SDS011;11168;56.976;24.168;2022-09-29T07:43:30;12.80;;;8.07;;
22007;SDS011;11168;56.976;24.168;2022-09-29T07:45:57;13.05;;;8.15;;
22007;SDS011;11168;56.976;24.168;2022-09-29T07:48:28;15.50;;;8.73;;
22007;SDS011;11168;56.976;24.168;2022-09-29T07:51:10;10.43;;;8.00;;
22007;SDS011;11168;56.976;24.168;2022-09-29T07:53:38;10.80;;;7.57;;
22007;SDS011;11168;56.976;24.168;2022-09-29T07:56:10;8.52;;;6.85;;
22007;SDS011;11168;56.976;24.168;2022-09-29T07:58:38;8.50;;;6.82;;
22007;SDS011;11168;56.976;24.168;2022-09-29T08:01:06;8.88;;;7.20;;
22007;SDS011;11168;56.976;24.168;2022-09-29T08:03:37;10.50;;;7.22;;
22007;SDS011;11168;56.976;24.168;2022-09-29T08:06:05;9.98;;;7.93;;
22007;SDS011;11168;56.976;24.168;2022-09-29T08:08:36;9.80;;;6.88;;
22007;SDS011;11168;56.976;24.168;2022-09-29T08:11:04;9.10;;;7.07;;
22007;SDS011;11168;56.976;24.168;2022-09-29T08:13:32;11.15;;;7.55;;
22007;SDS011;11168;56.976;24.168;2022-09-29T08:16:01;12.15;;;7.22;;
22007;SDS011;11168;56.976;24.168;2022-09-29T08:18:29;11.48;;;6.43;;
22007;SDS011;11168;56.976;24.168;2022-09-29T08:20:57;8.70;;;6.50;;
22007;SDS011;11168;56.976;24.168;2022-09-29T08:23:29;10.75;;;6.70;;
22007;SDS011;11168;56.976;24.168;2022-09-29T08:26:03;13.20;;;6.07;;
22007;SDS011;11168;56.976;24.168;2022-09-29T08:31:05;7.68;;;5.55;;
22007;SDS011;11168;56.976;24.168;2022-09-29T08:33:33;7.68;;;5.60;;
22007;SDS011;11168;56.976;24.168;2022-09-29T08:36:01;8.27;;;5.07;;
22007;SDS011;11168;56.976;24.168;2022-09-29T08:38:31;8.10;;;5.72;;
22007;SDS011;11168;56.976;24.168;2022-09-29T08:41:01;6.15;;;5.00;;
22007;SDS011;11168;56.976;24.168;2022-09-29T08:43:33;5.97;;;4.63;;
22007;SDS011;11168;56.976;24.168;2022-09-29T08:46:07;7.32;;;5.07;;
22007;SDS011;11168;56.976;24.168;2022-09-29T08:48:40;5.70;;;5.03;;
22007;SDS011;11168;56.976;24.168;2022-09-29T08:51:30;5.63;;;4.95;;
22007;SDS011;11168;56.976;24.168;2022-09-29T08:54:12;6.78;;;5.10;;
22007;SDS011;11168;56.976;24.168;2022-09-29T08:56:48;6.93;;;5.20;;
22007;SDS011;11168;56.976;24.168;2022-09-29T08:59:15;5.43;;;4.65;;
22007;SDS011;11168;56.976;24.168;2022-09-29T09:15:07;7.50;;;4.40;;
22007;SDS011;11168;56.976;24.168;2022-09-29T09:17:58;5.93;;;4.20;;
22007;SDS011;11168;56.976;24.168;2022-09-29T09:20:47;5.38;;;4.30;;
22007;SDS011;11168;56.976;24.168;2022-09-29T09:25:55;4.63;;;3.83;;
22007;SDS011;11168;56.976;24.168;2022-09-29T09:28:33;4.88;;;4.00;;
22007;SDS011;11168;56.976;24.168;2022-09-29T09:31:14;6.60;;;4.72;;
22007;SDS011;11168;56.976;24.168;2022-09-29T09:33:51;5.50;;;4.50;;
22007;SDS011;11168;56.976;24.168;2022-09-29T09:41:33;6.13;;;4.25;;
22007;SDS011;11168;56.976;24.168;2022-09-29T09:44:04;6.47;;;4.68;;
22007;SDS011;11168;56.976;24.168;2022-09-29T09:46:36;6.25;;;4.75;;
22007;SDS011;11168;56.976;24.168;2022-09-29T09:51:34;5.68;;;4.45;;
22007;SDS011;11168;56.976;24.168;2022-09-29T09:54:08;5.25;;;3.92;;
22007;SDS011;11168;56.976;24.168;2022-09-29T10:01:36;6.43;;;4.38;;
22007;SDS011;11168;56.976;24.168;2022-09-29T10:04:03;5.00;;;3.97;;
22007;SDS011;11168;56.976;24.168;2022-09-29T10:06:31;6.63;;;4.20;;
22007;SDS011;11168;56.976;24.168;2022-09-29T10:08:58;7.60;;;4.55;;
22007;SDS011;11168;56.976;24.168;2022-09-29T10:11:27;7.53;;;5.28;;
22007;SDS011;11168;56.976;24.168;2022-09-29T10:14:18;8.38;;;6.25;;
22007;SDS011;11168;56.976;24.168;2022-09-29T10:16:47;11.25;;;6.63;;
22007;SDS011;11168;56.976;24.168;2022-09-29T10:19:20;11.23;;;7.25;;
22007;SDS011;11168;56.976;24.168;2022-09-29T10:21:48;11.05;;;6.45;;
22007;SDS011;11168;56.976;24.168;2022-09-29T10:24:23;8.15;;;6.38;;
22007;SDS011;11168;56.976;24.168;2022-09-29T10:26:51;9.43;;;6.88;;
22007;SDS011;11168;56.976;24.168;2022-09-29T10:34:46;10.05;;;7.50;;
22007;SDS011;11168;56.976;24.168;2022-09-29T10:37:34;15.82;;;8.10;;
22007;SDS011;11168;56.976;24.168;2022-09-29T10:42:31;12.00;;;7.80;;
22007;SDS011;11168;56.976;24.168;2022-09-29T10:47:33;14.32;;;8.00;;
22007;SDS011;11168;56.976;24.168;2022-09-29T10:52:46;7.68;;;5.95;;
22007;SDS011;11168;56.976;24.168;2022-09-29T10:55:16;8.57;;;6.25;;
22007;SDS011;11168;56.976;24.168;2022-09-29T10:57:44;8.63;;;6.07;;
22007;SDS011;11168;56.976;24.168;2022-09-29T11:02:52;9.35;;;6.88;;
22007;SDS011;11168;56.976;24.168;2022-09-29T11:05:22;8.57;;;6.47;;
22007;SDS011;11168;56.976;24.168;2022-09-29T11:07:50;8.93;;;6.53;;
22007;SDS011;11168;56.976;24.168;2022-09-29T11:10:35;9.55;;;6.78;;
22007;SDS011;11168;56.976;24.168;2022-09-29T11:13:48;10.70;;;6.72;;
22007;SDS011;11168;56.976;24.168;2022-09-29T11:15:50;15.05;;;7.07;;
22007;SDS011;11168;56.976;24.168;2022-09-29T11:18:18;9.05;;;7.03;;
22007;SDS011;11168;56.976;24.168;2022-09-29T11:20:47;11.55;;;7.28;;
22007;SDS011;11168;56.976;24.168;2022-09-29T11:23:24;10.05;;;7.38;;
22007;SDS011;11168;56.976;24.168;2022-09-29T11:26:01;10.52;;;7.22;;
22007;SDS011;11168;56.976;24.168;2022-09-29T11:36:50;10.13;;;6.88;;
22007;SDS011;11168;56.976;24.168;2022-09-29T11:44:18;9.85;;;7.50;;
22007;SDS011;11168;56.976;24.168;2022-09-29T11:57:22;8.48;;;5.68;;
22007;SDS011;11168;56.976;24.168;2022-09-29T12:02:37;9.43;;;6.83;;
22007;SDS011;11168;56.976;24.168;2022-09-29T12:05:25;11.77;;;6.85;;
22007;SDS011;11168;56.976;24.168;2022-09-29T12:10:43;9.13;;;7.13;;
22007;SDS011;11168;56.976;24.168;2022-09-29T12:15:56;9.93;;;7.22;;
22007;SDS011;11168;56.976;24.168;2022-09-29T12:20:57;12.05;;;7.82;;
22007;SDS011;11168;56.976;24.168;2022-09-29T12:23:25;15.02;;;8.00;;
22007;SDS011;11168;56.976;24.168;2022-09-29T12:26:14;14.93;;;7.78;;
22007;SDS011;11168;56.976;24.168;2022-09-29T12:28:44;15.45;;;8.00;;
22007;SDS011;11168;56.976;24.168;2022-09-29T12:31:23;14.07;;;7.80;;
22007;SDS011;11168;56.976;24.168;2022-09-29T12:36:27;12.43;;;7.47;;
22007;SDS011;11168;56.976;24.168;2022-09-29T12:50:02;8.85;;;6.72;;
22007;SDS011;11168;56.976;24.168;2022-09-29T12:52:48;11.43;;;7.43;;
22007;SDS011;11168;56.976;24.168;2022-09-29T12:55:23;10.43;;;7.18;;
22007;SDS011;11168;56.976;24.168;2022-09-29T12:57:55;9.13;;;7.00;;
22007;SDS011;11168;56.976;24.168;2022-09-29T13:00:25;11.35;;;6.28;;
22007;SDS011;11168;56.976;24.168;2022-09-29T13:05:47;7.85;;;6.63;;
22007;SDS011;11168;56.976;24.168;2022-09-29T13:24:08;13.90;;;7.23;;
22007;SDS011;11168;56.976;24.168;2022-09-29T13:27:00;10.35;;;6.60;;
22007;SDS011;11168;56.976;24.168;2022-09-29T13:29:37;12.25;;;7.55;;
22007;SDS011;11168;56.976;24.168;2022-09-29T13:32:07;9.40;;;6.38;;
22007;SDS011;11168;56.976;24.168;2022-09-29T13:34:36;7.82;;;5.82;;
22007;SDS011;11168;56.976;24.168;2022-09-29T13:37:22;8.65;;;5.90;;
22007;SDS011;11168;56.976;24.168;2022-09-29T13:39:55;7.32;;;5.88;;
22007;SDS011;11168;56.976;24.168;2022-09-29T13:47:52;8.57;;;6.30;;
22007;SDS011;11168;56.976;24.168;2022-09-29T13:58:32;9.10;;;5.22;;
22007;SDS011;11168;56.976;24.168;2022-09-29T14:01:03;6.20;;;5.00;;
22007;SDS011;11168;56.976;24.168;2022-09-29T14:03:41;7.07;;;4.82;;
22007;SDS011;11168;56.976;24.168;2022-09-29T14:06:19;12.40;;;6.05;;
22007;SDS011;11168;56.976;24.168;2022-09-29T14:09:07;12.57;;;5.43;;
22007;SDS011;11168;56.976;24.168;2022-09-29T14:11:48;16.08;;;5.68;;
22007;SDS011;11168;56.976;24.168;2022-09-29T14:14:23;8.80;;;5.47;;
22007;SDS011;11168;56.976;24.168;2022-09-29T14:16:53;22.83;;;6.90;;
22007;SDS011;11168;56.976;24.168;2022-09-29T14:19:38;24.05;;;6.97;;
22007;SDS011;11168;56.976;24.168;2022-09-29T14:24:54;8.85;;;5.93;;
22007;SDS011;11168;56.976;24.168;2022-09-29T14:32:27;9.85;;;6.75;;
22007;SDS011;11168;56.976;24.168;2022-09-29T14:34:58;10.45;;;7.20;;
22007;SDS011;11168;56.976;24.168;2022-09-29T14:37:27;13.82;;;7.32;;
22007;SDS011;11168;56.976;24.168;2022-09-29T14:39:54;13.00;;;8.35;;
22007;SDS011;11168;56.976;24.168;2022-09-29T14:42:40;11.35;;;8.02;;
22007;SDS011;11168;56.976;24.168;2022-09-29T14:45:08;10.48;;;7.30;;
22007;SDS011;11168;56.976;24.168;2022-09-29T14:48:00;11.00;;;7.90;;
22007;SDS011;11168;56.976;24.168;2022-09-29T14:51:23;15.82;;;11.10;;
22007;SDS011;11168;56.976;24.168;2022-09-29T14:57:14;13.52;;;7.97;;
22007;SDS011;11168;56.976;24.168;2022-09-29T15:02:28;15.63;;;8.80;;
22007;SDS011;11168;56.976;24.168;2022-09-29T15:04:59;15.40;;;9.03;;
22007;SDS011;11168;56.976;24.168;2022-09-29T15:07:27;18.27;;;9.57;;
22007;SDS011;11168;56.976;24.168;2022-09-29T15:09:55;12.57;;;9.05;;
22007;SDS011;11168;56.976;24.168;2022-09-29T15:12:24;13.13;;;9.55;;
22007;SDS011;11168;56.976;24.168;2022-09-29T15:14:52;16.70;;;9.88;;
22007;SDS011;11168;56.976;24.168;2022-09-29T15:17:30;12.25;;;8.93;;
22007;SDS011;11168;56.976;24.168;2022-09-29T15:25:28;14.30;;;9.65;;
22007;SDS011;11168;56.976;24.168;2022-09-29T15:28:18;15.40;;;10.30;;
22007;SDS011;11168;56.976;24.168;2022-09-29T15:30:44;15.32;;;10.20;;
22007;SDS011;11168;56.976;24.168;2022-09-29T15:35:45;20.05;;;11.48;;
22007;SDS011;11168;56.976;24.168;2022-09-29T15:38:15;21.40;;;12.20;;
22007;SDS011;11168;56.976;24.168;2022-09-29T15:40:43;16.88;;;11.48;;
22007;SDS011;11168;56.976;24.168;2022-09-29T15:43:19;22.25;;;12.98;;
22007;SDS011;11168;56.976;24.168;2022-09-29T15:45:58;19.60;;;12.68;;
22007;SDS011;11168;56.976;24.168;2022-09-29T15:48:26;19.83;;;14.25;;
22007;SDS011;11168;56.976;24.168;2022-09-29T15:50:53;21.05;;;13.60;;
22007;SDS011;11168;56.976;24.168;2022-09-29T15:53:24;22.05;;;15.50;;
22007;SDS011;11168;56.976;24.168;2022-09-29T15:55:56;23.88;;;15.70;;
22007;SDS011;11168;56.976;24.168;2022-09-29T16:00:58;21.35;;;14.98;;
22007;SDS011;11168;56.976;24.168;2022-09-29T16:06:04;21.95;;;15.27;;
22007;SDS011;11168;56.976;24.168;2022-09-29T16:08:33;19.80;;;13.50;;
22007;SDS011;11168;56.976;24.168;2022-09-29T16:11:03;19.83;;;13.90;;
22007;SDS011;11168;56.976;24.168;2022-09-29T16:13:35;19.15;;;14.23;;
22007;SDS011;11168;56.976;24.168;2022-09-29T16:16:06;19.58;;;13.80;;
22007;SDS011;11168;56.976;24.168;2022-09-29T16:18:43;21.88;;;13.90;;
22007;SDS011;11168;56.976;24.168;2022-09-29T16:21:12;21.60;;;14.45;;
22007;SDS011;11168;56.976;24.168;2022-09-29T16:23:44;18.52;;;13.20;;
22007;SDS011;11168;56.976;24.168;2022-09-29T16:31:45;21.05;;;13.85;;
22007;SDS011;11168;56.976;24.168;2022-09-29T16:36:53;19.67;;;13.77;;
22007;SDS011;11168;56.976;24.168;2022-09-29T16:39:31;20.40;;;14.30;;
22007;SDS011;11168;56.976;24.168;2022-09-29T16:42:02;21.83;;;13.55;;
22007;SDS011;11168;56.976;24.168;2022-09-29T16:44:40;20.45;;;13.65;;
22007;SDS011;11168;56.976;24.168;2022-09-29T16:52:22;21.08;;;14.85;;
22007;SDS011;11168;56.976;24.168;2022-09-29T16:54:52;23.50;;;15.57;;
22007;SDS011;11168;56.976;24.168;2022-09-29T16:59:54;23.90;;;15.60;;
22007;SDS011;11168;56.976;24.168;2022-09-29T17:02:22;21.23;;;14.18;;
22007;SDS011;11168;56.976;24.168;2022-09-29T17:04:50;21.10;;;15.00;;
22007;SDS011;11168;56.976;24.168;2022-09-29T17:07:19;27.08;;;15.40;;
22007;SDS011;11168;56.976;24.168;2022-09-29T17:09:47;21.30;;;16.67;;
22007;SDS011;11168;56.976;24.168;2022-09-29T17:12:16;24.20;;;15.15;;
22007;SDS011;11168;56.976;24.168;2022-09-29T17:14:43;27.02;;;15.27;;
22007;SDS011;11168;56.976;24.168;2022-09-29T17:17:14;23.92;;;15.95;;
22007;SDS011;11168;56.976;24.168;2022-09-29T17:19:42;24.88;;;15.57;;
22007;SDS011;11168;56.976;24.168;2022-09-29T17:22:21;23.45;;;15.13;;
22007;SDS011;11168;56.976;24.168;2022-09-29T17:24:49;18.85;;;13.43;;
22007;SDS011;11168;56.976;24.168;2022-09-29T17:27:17;24.17;;;15.30;;
22007;SDS011;11168;56.976;24.168;2022-09-29T17:30:03;22.02;;;14.63;;
22007;SDS011;11168;56.976;24.168;2022-09-29T17:32:31;22.30;;;15.13;;
22007;SDS011;11168;56.976;24.168;2022-09-29T17:35:48;21.60;;;15.18;;
22007;SDS011;11168;56.976;24.168;2022-09-29T17:38:49;24.08;;;16.15;;
22007;SDS011;11168;56.976;24.168;2022-09-29T17:41:17;26.55;;;16.48;;
22007;SDS011;11168;56.976;24.168;2022-09-29T17:43:45;25.55;;;16.98;;
22007;SDS011;11168;56.976;24.168;2022-09-29T17:46:15;27.65;;;18.30;;
22007;SDS011;11168;56.976;24.168;2022-09-29T17:48:43;27.17;;;18.40;;
22007;SDS011;11168;56.976;24.168;2022-09-29T17:51:11;25.10;;;17.42;;
22007;SDS011;11168;56.976;24.168;2022-09-29T17:53:41;28.42;;;19.13;;
22007;SDS011;11168;56.976;24.168;2022-09-29T17:56:18;31.00;;;22.20;;
22007;SDS011;11168;56.976;24.168;2022-09-29T17:58:47;34.53;;;22.90;;
22007;SDS011;11168;56.976;24.168;2022-09-29T18:01:19;38.53;;;24.42;;
22007;SDS011;11168;56.976;24.168;2022-09-29T18:03:46;38.72;;;24.55;;
22007;SDS011;11168;56.976;24.168;2022-09-29T18:06:19;34.65;;;23.50;;
22007;SDS011;11168;56.976;24.168;2022-09-29T18:08:47;30.40;;;19.67;;
22007;SDS011;11168;56.976;24.168;2022-09-29T18:11:20;35.35;;;23.38;;
22007;SDS011;11168;56.976;24.168;2022-09-29T18:13:47;37.67;;;24.30;;
22007;SDS011;11168;56.976;24.168;2022-09-29T18:16:16;40.03;;;26.65;;
22007;SDS011;11168;56.976;24.168;2022-09-29T18:18:43;37.60;;;25.13;;
22007;SDS011;11168;56.976;24.168;2022-09-29T18:21:11;35.20;;;25.80;;
22007;SDS011;11168;56.976;24.168;2022-09-29T18:23:38;34.65;;;24.80;;
22007;SDS011;11168;56.976;24.168;2022-09-29T18:26:06;35.50;;;25.00;;
22007;SDS011;11168;56.976;24.168;2022-09-29T18:28:34;33.50;;;23.50;;